<?xml version="1.0" encoding="utf-8"?>
<gpx xmlns:xsi="http://www.w3.org/2001/XMLSchema-instance" xmlns:xsd="http://www.w3.org/2001/XMLSchema" version="1.1" creator="Shapelink.com" xmlns="http://www.topografix.com/GPX/1/1" xmlns:gpxtpx="http://www.garmin.com/xmlschemas/TrackPointExtension/v1">
  <metadata>
    <name>Gåing 2.61 km, 2012-09-15</name>
    <desc></desc>
    <author><name>Alexander Engvall</name></author> 
    <time>2012-09-15T15:46:06Z</time>
  </metadata>
  <trk>
    <name>Gåing 2.61 km, 2012-09-15</name>
    <trkseg>
      <trkpt lat="59.4798455" lon="17.8110288">
        <ele>57.6</ele>
        <time>2012-09-15T15:46:06Z</time>
      </trkpt>
      <trkpt lat="59.4797108" lon="17.8112264">
        <ele>44.2</ele>
        <time>2012-09-15T15:46:16Z</time>
      </trkpt>
      <trkpt lat="59.479734" lon="17.8113116">
        <ele>44.4</ele>
        <time>2012-09-15T15:46:23Z</time>
      </trkpt>
      <trkpt lat="59.4797488" lon="17.8112998">
        <ele>45.4</ele>
        <time>2012-09-15T15:46:25Z</time>
      </trkpt>
      <trkpt lat="59.4797851" lon="17.8113074">
        <ele>46.2</ele>
        <time>2012-09-15T15:46:27Z</time>
      </trkpt>
      <trkpt lat="59.4799705" lon="17.8113461">
        <ele>45.8</ele>
        <time>2012-09-15T15:46:41Z</time>
      </trkpt>
      <trkpt lat="59.4801349" lon="17.8115267">
        <ele>48.4</ele>
        <time>2012-09-15T15:46:53Z</time>
      </trkpt>
      <trkpt lat="59.4802634" lon="17.8117626">
        <ele>47.4</ele>
        <time>2012-09-15T15:47:04Z</time>
      </trkpt>
      <trkpt lat="59.4804129" lon="17.8119774">
        <ele>46.2</ele>
        <time>2012-09-15T15:47:17Z</time>
      </trkpt>
      <trkpt lat="59.4804212" lon="17.8119943">
        <ele>46.2</ele>
        <time>2012-09-15T15:47:18Z</time>
      </trkpt>
      <trkpt lat="59.4804859" lon="17.8120476">
        <ele>46.2</ele>
        <time>2012-09-15T15:47:23Z</time>
      </trkpt>
      <trkpt lat="59.4805634" lon="17.812171">
        <ele>47.2</ele>
        <time>2012-09-15T15:47:28Z</time>
      </trkpt>
      <trkpt lat="59.4807025" lon="17.8124041">
        <ele>47.4</ele>
        <time>2012-09-15T15:47:39Z</time>
      </trkpt>
      <trkpt lat="59.4808082" lon="17.8125925">
        <ele>50.6</ele>
        <time>2012-09-15T15:47:46Z</time>
      </trkpt>
      <trkpt lat="59.4808477" lon="17.8126671">
        <ele>53</ele>
        <time>2012-09-15T15:47:49Z</time>
      </trkpt>
      <trkpt lat="59.4809803" lon="17.8129133">
        <ele>56.4</ele>
        <time>2012-09-15T15:48:00Z</time>
      </trkpt>
      <trkpt lat="59.4811132" lon="17.8131764">
        <ele>58</ele>
        <time>2012-09-15T15:48:12Z</time>
      </trkpt>
      <trkpt lat="59.4812632" lon="17.8133842">
        <ele>59.4</ele>
        <time>2012-09-15T15:48:23Z</time>
      </trkpt>
      <trkpt lat="59.4813054" lon="17.813611">
        <ele>58.4</ele>
        <time>2012-09-15T15:48:31Z</time>
      </trkpt>
      <trkpt lat="59.4813168" lon="17.8137634">
        <ele>57.2</ele>
        <time>2012-09-15T15:48:35Z</time>
      </trkpt>
      <trkpt lat="59.4813585" lon="17.8139421">
        <ele>60.2</ele>
        <time>2012-09-15T15:48:41Z</time>
      </trkpt>
      <trkpt lat="59.4813585" lon="17.8139995">
        <ele>60.2</ele>
        <time>2012-09-15T15:48:43Z</time>
      </trkpt>
      <trkpt lat="59.4813567" lon="17.8141007">
        <ele>60</ele>
        <time>2012-09-15T15:48:46Z</time>
      </trkpt>
      <trkpt lat="59.481362" lon="17.8141266">
        <ele>61.2</ele>
        <time>2012-09-15T15:48:47Z</time>
      </trkpt>
      <trkpt lat="59.4813621" lon="17.8142583">
        <ele>60.6</ele>
        <time>2012-09-15T15:48:51Z</time>
      </trkpt>
      <trkpt lat="59.4813466" lon="17.814459">
        <ele>58.6</ele>
        <time>2012-09-15T15:48:56Z</time>
      </trkpt>
      <trkpt lat="59.4813474" lon="17.814502">
        <ele>58.6</ele>
        <time>2012-09-15T15:48:57Z</time>
      </trkpt>
      <trkpt lat="59.4813228" lon="17.8148071">
        <ele>58.2</ele>
        <time>2012-09-15T15:49:08Z</time>
      </trkpt>
      <trkpt lat="59.4813274" lon="17.814844">
        <ele>58.6</ele>
        <time>2012-09-15T15:49:09Z</time>
      </trkpt>
      <trkpt lat="59.4813347" lon="17.8149413">
        <ele>59.6</ele>
        <time>2012-09-15T15:49:13Z</time>
      </trkpt>
      <trkpt lat="59.4813163" lon="17.815219">
        <ele>59.4</ele>
        <time>2012-09-15T15:49:23Z</time>
      </trkpt>
      <trkpt lat="59.4813175" lon="17.8152608">
        <ele>59.8</ele>
        <time>2012-09-15T15:49:24Z</time>
      </trkpt>
      <trkpt lat="59.4812819" lon="17.8155736">
        <ele>56.4</ele>
        <time>2012-09-15T15:49:33Z</time>
      </trkpt>
      <trkpt lat="59.481286" lon="17.8157996">
        <ele>55.6</ele>
        <time>2012-09-15T15:49:39Z</time>
      </trkpt>
      <trkpt lat="59.4812606" lon="17.8158841">
        <ele>56</ele>
        <time>2012-09-15T15:49:43Z</time>
      </trkpt>
      <trkpt lat="59.4812462" lon="17.8159184">
        <ele>54.4</ele>
        <time>2012-09-15T15:49:44Z</time>
      </trkpt>
      <trkpt lat="59.481236" lon="17.8159468">
        <ele>53.8</ele>
        <time>2012-09-15T15:49:45Z</time>
      </trkpt>
      <trkpt lat="59.4812039" lon="17.8160562">
        <ele>52.4</ele>
        <time>2012-09-15T15:49:50Z</time>
      </trkpt>
      <trkpt lat="59.4812196" lon="17.8162643">
        <ele>53.8</ele>
        <time>2012-09-15T15:49:58Z</time>
      </trkpt>
      <trkpt lat="59.4812327" lon="17.8162819">
        <ele>55.2</ele>
        <time>2012-09-15T15:49:59Z</time>
      </trkpt>
      <trkpt lat="59.4811108" lon="17.8165446">
        <ele>54.6</ele>
        <time>2012-09-15T15:50:13Z</time>
      </trkpt>
      <trkpt lat="59.4810951" lon="17.816634">
        <ele>55.8</ele>
        <time>2012-09-15T15:50:16Z</time>
      </trkpt>
      <trkpt lat="59.4810982" lon="17.8167004">
        <ele>57.4</ele>
        <time>2012-09-15T15:50:19Z</time>
      </trkpt>
      <trkpt lat="59.481091" lon="17.8167284">
        <ele>56.8</ele>
        <time>2012-09-15T15:50:20Z</time>
      </trkpt>
      <trkpt lat="59.4810488" lon="17.8169599">
        <ele>60.6</ele>
        <time>2012-09-15T15:50:29Z</time>
      </trkpt>
      <trkpt lat="59.4810729" lon="17.8170553">
        <ele>60</ele>
        <time>2012-09-15T15:50:33Z</time>
      </trkpt>
      <trkpt lat="59.4810565" lon="17.817134">
        <ele>59.2</ele>
        <time>2012-09-15T15:50:37Z</time>
      </trkpt>
      <trkpt lat="59.4810936" lon="17.8174188">
        <ele>64.2</ele>
        <time>2012-09-15T15:50:49Z</time>
      </trkpt>
      <trkpt lat="59.4811886" lon="17.8176386">
        <ele>69.6</ele>
        <time>2012-09-15T15:51:02Z</time>
      </trkpt>
      <trkpt lat="59.481198" lon="17.8177005">
        <ele>69.4</ele>
        <time>2012-09-15T15:51:05Z</time>
      </trkpt>
      <trkpt lat="59.4811993" lon="17.8177259">
        <ele>69.8</ele>
        <time>2012-09-15T15:51:06Z</time>
      </trkpt>
      <trkpt lat="59.4812024" lon="17.8178041">
        <ele>67.2</ele>
        <time>2012-09-15T15:51:10Z</time>
      </trkpt>
      <trkpt lat="59.48123" lon="17.8178017">
        <ele>70.4</ele>
        <time>2012-09-15T15:51:12Z</time>
      </trkpt>
      <trkpt lat="59.4813581" lon="17.8177327">
        <ele>73.2</ele>
        <time>2012-09-15T15:51:22Z</time>
      </trkpt>
      <trkpt lat="59.481553" lon="17.8178006">
        <ele>83.6</ele>
        <time>2012-09-15T15:51:34Z</time>
      </trkpt>
      <trkpt lat="59.4815848" lon="17.8178919">
        <ele>80.8</ele>
        <time>2012-09-15T15:51:39Z</time>
      </trkpt>
      <trkpt lat="59.4816847" lon="17.8179141">
        <ele>74</ele>
        <time>2012-09-15T15:51:52Z</time>
      </trkpt>
      <trkpt lat="59.4816693" lon="17.8177934">
        <ele>62.6</ele>
        <time>2012-09-15T15:51:59Z</time>
      </trkpt>
      <trkpt lat="59.4816875" lon="17.8178096">
        <ele>61.6</ele>
        <time>2012-09-15T15:52:02Z</time>
      </trkpt>
      <trkpt lat="59.4817041" lon="17.817974">
        <ele>59</ele>
        <time>2012-09-15T15:52:09Z</time>
      </trkpt>
      <trkpt lat="59.4817558" lon="17.8179973">
        <ele>61.6</ele>
        <time>2012-09-15T15:52:13Z</time>
      </trkpt>
      <trkpt lat="59.4817747" lon="17.8179918">
        <ele>63.2</ele>
        <time>2012-09-15T15:52:14Z</time>
      </trkpt>
      <trkpt lat="59.4817792" lon="17.8179764">
        <ele>63</ele>
        <time>2012-09-15T15:52:15Z</time>
      </trkpt>
      <trkpt lat="59.481792" lon="17.8180229">
        <ele>65.4</ele>
        <time>2012-09-15T15:52:18Z</time>
      </trkpt>
      <trkpt lat="59.4817133" lon="17.8179933">
        <ele>55</ele>
        <time>2012-09-15T15:52:35Z</time>
      </trkpt>
      <trkpt lat="59.4817312" lon="17.8179518">
        <ele>55.8</ele>
        <time>2012-09-15T15:52:38Z</time>
      </trkpt>
      <trkpt lat="59.481746" lon="17.8179203">
        <ele>51.6</ele>
        <time>2012-09-15T15:52:43Z</time>
      </trkpt>
      <trkpt lat="59.4817678" lon="17.8179042">
        <ele>52.6</ele>
        <time>2012-09-15T15:52:45Z</time>
      </trkpt>
      <trkpt lat="59.4818107" lon="17.8179208">
        <ele>56.6</ele>
        <time>2012-09-15T15:52:48Z</time>
      </trkpt>
      <trkpt lat="59.4818253" lon="17.8179115">
        <ele>58.8</ele>
        <time>2012-09-15T15:52:50Z</time>
      </trkpt>
      <trkpt lat="59.4818711" lon="17.8178894">
        <ele>62.4</ele>
        <time>2012-09-15T15:52:54Z</time>
      </trkpt>
      <trkpt lat="59.4818775" lon="17.8179664">
        <ele>60.6</ele>
        <time>2012-09-15T15:52:58Z</time>
      </trkpt>
      <trkpt lat="59.4818837" lon="17.8179826">
        <ele>61.8</ele>
        <time>2012-09-15T15:52:59Z</time>
      </trkpt>
      <trkpt lat="59.4818971" lon="17.8179913">
        <ele>63.6</ele>
        <time>2012-09-15T15:53:01Z</time>
      </trkpt>
      <trkpt lat="59.4819522" lon="17.817981">
        <ele>62.8</ele>
        <time>2012-09-15T15:53:07Z</time>
      </trkpt>
      <trkpt lat="59.4820262" lon="17.8179556">
        <ele>68.6</ele>
        <time>2012-09-15T15:53:12Z</time>
      </trkpt>
      <trkpt lat="59.4819977" lon="17.8180473">
        <ele>64.2</ele>
        <time>2012-09-15T15:53:16Z</time>
      </trkpt>
      <trkpt lat="59.4819765" lon="17.8181436">
        <ele>62</ele>
        <time>2012-09-15T15:53:21Z</time>
      </trkpt>
      <trkpt lat="59.4819805" lon="17.8181914">
        <ele>60.4</ele>
        <time>2012-09-15T15:53:24Z</time>
      </trkpt>
      <trkpt lat="59.4819809" lon="17.818258">
        <ele>58.8</ele>
        <time>2012-09-15T15:53:28Z</time>
      </trkpt>
      <trkpt lat="59.4819734" lon="17.8183405">
        <ele>56.2</ele>
        <time>2012-09-15T15:53:32Z</time>
      </trkpt>
      <trkpt lat="59.4819883" lon="17.818384">
        <ele>58</ele>
        <time>2012-09-15T15:53:34Z</time>
      </trkpt>
      <trkpt lat="59.4820341" lon="17.8184255">
        <ele>65.4</ele>
        <time>2012-09-15T15:53:38Z</time>
      </trkpt>
      <trkpt lat="59.4820467" lon="17.8184337">
        <ele>66.6</ele>
        <time>2012-09-15T15:53:39Z</time>
      </trkpt>
      <trkpt lat="59.48207" lon="17.8184627">
        <ele>66.4</ele>
        <time>2012-09-15T15:53:42Z</time>
      </trkpt>
      <trkpt lat="59.4819961" lon="17.8184817">
        <ele>62.8</ele>
        <time>2012-09-15T15:54:33Z</time>
      </trkpt>
      <trkpt lat="59.4820589" lon="17.8185001">
        <ele>74.8</ele>
        <time>2012-09-15T15:54:40Z</time>
      </trkpt>
      <trkpt lat="59.4820912" lon="17.8185381">
        <ele>76.4</ele>
        <time>2012-09-15T15:54:44Z</time>
      </trkpt>
      <trkpt lat="59.4820991" lon="17.8187032">
        <ele>70.8</ele>
        <time>2012-09-15T15:54:55Z</time>
      </trkpt>
      <trkpt lat="59.4820973" lon="17.8186922">
        <ele>70</ele>
        <time>2012-09-15T15:54:56Z</time>
      </trkpt>
      <trkpt lat="59.4821297" lon="17.8186529">
        <ele>74.6</ele>
        <time>2012-09-15T15:54:59Z</time>
      </trkpt>
      <trkpt lat="59.4820946" lon="17.8185161">
        <ele>63.8</ele>
        <time>2012-09-15T15:56:11Z</time>
      </trkpt>
      <trkpt lat="59.482193" lon="17.8186161">
        <ele>80.6</ele>
        <time>2012-09-15T15:57:14Z</time>
      </trkpt>
      <trkpt lat="59.482222" lon="17.8186047">
        <ele>84.6</ele>
        <time>2012-09-15T15:57:17Z</time>
      </trkpt>
      <trkpt lat="59.4821669" lon="17.818785">
        <ele>76.6</ele>
        <time>2012-09-15T15:58:46Z</time>
      </trkpt>
      <trkpt lat="59.4821317" lon="17.8188533">
        <ele>88.4</ele>
        <time>2012-09-15T15:58:58Z</time>
      </trkpt>
      <trkpt lat="59.48217" lon="17.8186217">
        <ele>72.6</ele>
        <time>2012-09-15T16:00:12Z</time>
      </trkpt>
      <trkpt lat="59.4822645" lon="17.8186768">
        <ele>78.2</ele>
        <time>2012-09-15T16:01:00Z</time>
      </trkpt>
      <trkpt lat="59.4822945" lon="17.8186765">
        <ele>78.8</ele>
        <time>2012-09-15T16:01:03Z</time>
      </trkpt>
      <trkpt lat="59.4823375" lon="17.8187016">
        <ele>77.8</ele>
        <time>2012-09-15T16:01:08Z</time>
      </trkpt>
      <trkpt lat="59.4823865" lon="17.8187543">
        <ele>79</ele>
        <time>2012-09-15T16:01:13Z</time>
      </trkpt>
      <trkpt lat="59.4824148" lon="17.8187557">
        <ele>79.2</ele>
        <time>2012-09-15T16:01:17Z</time>
      </trkpt>
      <trkpt lat="59.482437" lon="17.818693">
        <ele>75.8</ele>
        <time>2012-09-15T16:01:48Z</time>
      </trkpt>
      <trkpt lat="59.4824986" lon="17.8186482">
        <ele>71.8</ele>
        <time>2012-09-15T16:02:02Z</time>
      </trkpt>
      <trkpt lat="59.4825018" lon="17.818616">
        <ele>71.8</ele>
        <time>2012-09-15T16:02:04Z</time>
      </trkpt>
      <trkpt lat="59.4825704" lon="17.8186742">
        <ele>75.6</ele>
        <time>2012-09-15T16:02:10Z</time>
      </trkpt>
      <trkpt lat="59.4825852" lon="17.8187808">
        <ele>76.2</ele>
        <time>2012-09-15T16:02:16Z</time>
      </trkpt>
      <trkpt lat="59.4826274" lon="17.8188295">
        <ele>75.6</ele>
        <time>2012-09-15T16:02:40Z</time>
      </trkpt>
      <trkpt lat="59.4826429" lon="17.8189875">
        <ele>63.2</ele>
        <time>2012-09-15T16:04:33Z</time>
      </trkpt>
      <trkpt lat="59.4826509" lon="17.8190491">
        <ele>67.2</ele>
        <time>2012-09-15T16:04:55Z</time>
      </trkpt>
      <trkpt lat="59.482624" lon="17.8189403">
        <ele>68</ele>
        <time>2012-09-15T16:06:43Z</time>
      </trkpt>
      <trkpt lat="59.482646" lon="17.8190299">
        <ele>71.2</ele>
        <time>2012-09-15T16:07:02Z</time>
      </trkpt>
      <trkpt lat="59.4826788" lon="17.8190531">
        <ele>69.8</ele>
        <time>2012-09-15T16:07:05Z</time>
      </trkpt>
      <trkpt lat="59.482699" lon="17.8190465">
        <ele>67.8</ele>
        <time>2012-09-15T16:07:08Z</time>
      </trkpt>
      <trkpt lat="59.4827732" lon="17.8189888">
        <ele>70.8</ele>
        <time>2012-09-15T16:07:16Z</time>
      </trkpt>
      <trkpt lat="59.4828493" lon="17.8189848">
        <ele>77.4</ele>
        <time>2012-09-15T16:07:23Z</time>
      </trkpt>
      <trkpt lat="59.482855" lon="17.819061">
        <ele>69</ele>
        <time>2012-09-15T16:07:34Z</time>
      </trkpt>
      <trkpt lat="59.4828499" lon="17.8192071">
        <ele>59.8</ele>
        <time>2012-09-15T16:07:44Z</time>
      </trkpt>
      <trkpt lat="59.4828613" lon="17.8192098">
        <ele>63.8</ele>
        <time>2012-09-15T16:07:50Z</time>
      </trkpt>
      <trkpt lat="59.4827932" lon="17.8192236">
        <ele>65</ele>
        <time>2012-09-15T16:08:20Z</time>
      </trkpt>
      <trkpt lat="59.482712" lon="17.8191848">
        <ele>76.4</ele>
        <time>2012-09-15T16:10:23Z</time>
      </trkpt>
      <trkpt lat="59.4827378" lon="17.8191543">
        <ele>75.6</ele>
        <time>2012-09-15T16:10:29Z</time>
      </trkpt>
      <trkpt lat="59.4828033" lon="17.8193203">
        <ele>64.8</ele>
        <time>2012-09-15T16:11:39Z</time>
      </trkpt>
      <trkpt lat="59.4827908" lon="17.8193319">
        <ele>69.6</ele>
        <time>2012-09-15T16:12:00Z</time>
      </trkpt>
      <trkpt lat="59.4828131" lon="17.8193277">
        <ele>73</ele>
        <time>2012-09-15T16:12:03Z</time>
      </trkpt>
      <trkpt lat="59.482829" lon="17.8192532">
        <ele>76</ele>
        <time>2012-09-15T16:12:07Z</time>
      </trkpt>
      <trkpt lat="59.4827901" lon="17.8192081">
        <ele>78.2</ele>
        <time>2012-09-15T16:12:26Z</time>
      </trkpt>
      <trkpt lat="59.4828012" lon="17.8191584">
        <ele>83.2</ele>
        <time>2012-09-15T16:12:39Z</time>
      </trkpt>
      <trkpt lat="59.4828217" lon="17.8190662">
        <ele>79.4</ele>
        <time>2012-09-15T16:12:45Z</time>
      </trkpt>
      <trkpt lat="59.482796" lon="17.8189719">
        <ele>85</ele>
        <time>2012-09-15T16:13:14Z</time>
      </trkpt>
      <trkpt lat="59.4828131" lon="17.8189295">
        <ele>77.4</ele>
        <time>2012-09-15T16:13:23Z</time>
      </trkpt>
      <trkpt lat="59.4828655" lon="17.8189401">
        <ele>73.6</ele>
        <time>2012-09-15T16:13:27Z</time>
      </trkpt>
      <trkpt lat="59.4829019" lon="17.8189187">
        <ele>70.4</ele>
        <time>2012-09-15T16:13:31Z</time>
      </trkpt>
      <trkpt lat="59.482929" lon="17.8189263">
        <ele>70.6</ele>
        <time>2012-09-15T16:13:33Z</time>
      </trkpt>
      <trkpt lat="59.4829682" lon="17.8189449">
        <ele>70</ele>
        <time>2012-09-15T16:13:37Z</time>
      </trkpt>
      <trkpt lat="59.4829793" lon="17.8189401">
        <ele>70</ele>
        <time>2012-09-15T16:13:38Z</time>
      </trkpt>
      <trkpt lat="59.4830155" lon="17.81895">
        <ele>70.6</ele>
        <time>2012-09-15T16:13:42Z</time>
      </trkpt>
      <trkpt lat="59.4830254" lon="17.8188517">
        <ele>68.8</ele>
        <time>2012-09-15T16:14:08Z</time>
      </trkpt>
      <trkpt lat="59.4830534" lon="17.8188299">
        <ele>68</ele>
        <time>2012-09-15T16:14:15Z</time>
      </trkpt>
      <trkpt lat="59.4830608" lon="17.818905">
        <ele>68.2</ele>
        <time>2012-09-15T16:14:24Z</time>
      </trkpt>
      <trkpt lat="59.4830798" lon="17.818916">
        <ele>69.8</ele>
        <time>2012-09-15T16:14:26Z</time>
      </trkpt>
      <trkpt lat="59.4831472" lon="17.818912">
        <ele>75.6</ele>
        <time>2012-09-15T16:15:06Z</time>
      </trkpt>
      <trkpt lat="59.4831507" lon="17.8188479">
        <ele>75.8</ele>
        <time>2012-09-15T16:15:11Z</time>
      </trkpt>
      <trkpt lat="59.4831473" lon="17.8187984">
        <ele>75.8</ele>
        <time>2012-09-15T16:15:13Z</time>
      </trkpt>
      <trkpt lat="59.4831829" lon="17.8187765">
        <ele>75.2</ele>
        <time>2012-09-15T16:15:17Z</time>
      </trkpt>
      <trkpt lat="59.4832005" lon="17.8187625">
        <ele>74.4</ele>
        <time>2012-09-15T16:15:19Z</time>
      </trkpt>
      <trkpt lat="59.4832047" lon="17.8186829">
        <ele>73.2</ele>
        <time>2012-09-15T16:15:25Z</time>
      </trkpt>
      <trkpt lat="59.4831594" lon="17.8185792">
        <ele>72.8</ele>
        <time>2012-09-15T16:15:32Z</time>
      </trkpt>
      <trkpt lat="59.4831566" lon="17.8185327">
        <ele>74.4</ele>
        <time>2012-09-15T16:15:34Z</time>
      </trkpt>
      <trkpt lat="59.4831552" lon="17.818488">
        <ele>75.6</ele>
        <time>2012-09-15T16:15:37Z</time>
      </trkpt>
      <trkpt lat="59.4831916" lon="17.8184788">
        <ele>75</ele>
        <time>2012-09-15T16:15:41Z</time>
      </trkpt>
      <trkpt lat="59.4832575" lon="17.8182726">
        <ele>70.2</ele>
        <time>2012-09-15T16:16:12Z</time>
      </trkpt>
      <trkpt lat="59.4833274" lon="17.8180903">
        <ele>69.8</ele>
        <time>2012-09-15T16:16:32Z</time>
      </trkpt>
      <trkpt lat="59.4833734" lon="17.8180797">
        <ele>67.4</ele>
        <time>2012-09-15T16:16:36Z</time>
      </trkpt>
      <trkpt lat="59.4833829" lon="17.8180834">
        <ele>66.6</ele>
        <time>2012-09-15T16:16:37Z</time>
      </trkpt>
      <trkpt lat="59.4834228" lon="17.8180696">
        <ele>65</ele>
        <time>2012-09-15T16:16:42Z</time>
      </trkpt>
      <trkpt lat="59.4835569" lon="17.8180015">
        <ele>62.8</ele>
        <time>2012-09-15T16:17:07Z</time>
      </trkpt>
      <trkpt lat="59.4835779" lon="17.8179609">
        <ele>61</ele>
        <time>2012-09-15T16:17:13Z</time>
      </trkpt>
      <trkpt lat="59.4835875" lon="17.8180155">
        <ele>56.8</ele>
        <time>2012-09-15T16:17:17Z</time>
      </trkpt>
      <trkpt lat="59.4836378" lon="17.8180691">
        <ele>55.8</ele>
        <time>2012-09-15T16:17:26Z</time>
      </trkpt>
      <trkpt lat="59.4836826" lon="17.818023">
        <ele>59.2</ele>
        <time>2012-09-15T16:17:32Z</time>
      </trkpt>
      <trkpt lat="59.4837067" lon="17.8180135">
        <ele>61.2</ele>
        <time>2012-09-15T16:17:35Z</time>
      </trkpt>
      <trkpt lat="59.4837335" lon="17.8180027">
        <ele>61.8</ele>
        <time>2012-09-15T16:17:38Z</time>
      </trkpt>
      <trkpt lat="59.4837745" lon="17.8179989">
        <ele>63.4</ele>
        <time>2012-09-15T16:17:42Z</time>
      </trkpt>
      <trkpt lat="59.4838797" lon="17.8179561">
        <ele>65</ele>
        <time>2012-09-15T16:18:01Z</time>
      </trkpt>
      <trkpt lat="59.4838385" lon="17.8183146">
        <ele>41.6</ele>
        <time>2012-09-15T16:18:24Z</time>
      </trkpt>
      <trkpt lat="59.483819" lon="17.8183612">
        <ele>37.6</ele>
        <time>2012-09-15T16:18:28Z</time>
      </trkpt>
      <trkpt lat="59.4838598" lon="17.8185535">
        <ele>53.4</ele>
        <time>2012-09-15T16:18:52Z</time>
      </trkpt>
      <trkpt lat="59.4838663" lon="17.8185796">
        <ele>53.6</ele>
        <time>2012-09-15T16:18:53Z</time>
      </trkpt>
      <trkpt lat="59.4838901" lon="17.8186295">
        <ele>55.8</ele>
        <time>2012-09-15T16:19:02Z</time>
      </trkpt>
      <trkpt lat="59.4839294" lon="17.818471">
        <ele>62.2</ele>
        <time>2012-09-15T16:20:02Z</time>
      </trkpt>
      <trkpt lat="59.4839532" lon="17.8182959">
        <ele>61</ele>
        <time>2012-09-15T16:20:38Z</time>
      </trkpt>
      <trkpt lat="59.4840307" lon="17.8180036">
        <ele>59.8</ele>
        <time>2012-09-15T16:21:08Z</time>
      </trkpt>
      <trkpt lat="59.4840407" lon="17.8179968">
        <ele>59.6</ele>
        <time>2012-09-15T16:21:09Z</time>
      </trkpt>
      <trkpt lat="59.4840671" lon="17.8178621">
        <ele>59</ele>
        <time>2012-09-15T16:21:25Z</time>
      </trkpt>
      <trkpt lat="59.4840607" lon="17.8178236">
        <ele>59.8</ele>
        <time>2012-09-15T16:21:27Z</time>
      </trkpt>
      <trkpt lat="59.4840579" lon="17.8177887">
        <ele>61.4</ele>
        <time>2012-09-15T16:21:30Z</time>
      </trkpt>
      <trkpt lat="59.4840469" lon="17.8177918">
        <ele>63.4</ele>
        <time>2012-09-15T16:21:33Z</time>
      </trkpt>
      <trkpt lat="59.4840277" lon="17.8177247">
        <ele>66.6</ele>
        <time>2012-09-15T16:21:42Z</time>
      </trkpt>
      <trkpt lat="59.4839977" lon="17.8175576">
        <ele>66.8</ele>
        <time>2012-09-15T16:21:57Z</time>
      </trkpt>
      <trkpt lat="59.4840375" lon="17.8174789">
        <ele>63.6</ele>
        <time>2012-09-15T16:22:09Z</time>
      </trkpt>
      <trkpt lat="59.4841189" lon="17.8175938">
        <ele>64.6</ele>
        <time>2012-09-15T16:22:27Z</time>
      </trkpt>
      <trkpt lat="59.4841252" lon="17.8176147">
        <ele>64.2</ele>
        <time>2012-09-15T16:22:29Z</time>
      </trkpt>
      <trkpt lat="59.4841631" lon="17.8176737">
        <ele>62.8</ele>
        <time>2012-09-15T16:22:39Z</time>
      </trkpt>
      <trkpt lat="59.4843413" lon="17.8175671">
        <ele>65.4</ele>
        <time>2012-09-15T16:23:31Z</time>
      </trkpt>
      <trkpt lat="59.4843983" lon="17.8175403">
        <ele>63</ele>
        <time>2012-09-15T16:24:20Z</time>
      </trkpt>
      <trkpt lat="59.4844044" lon="17.8175075">
        <ele>64</ele>
        <time>2012-09-15T16:24:24Z</time>
      </trkpt>
      <trkpt lat="59.484411" lon="17.817591">
        <ele>63.8</ele>
        <time>2012-09-15T16:24:28Z</time>
      </trkpt>
      <trkpt lat="59.4844219" lon="17.8176448">
        <ele>58.8</ele>
        <time>2012-09-15T16:25:14Z</time>
      </trkpt>
      <trkpt lat="59.4844535" lon="17.817655">
        <ele>61.2</ele>
        <time>2012-09-15T16:26:05Z</time>
      </trkpt>
      <trkpt lat="59.4843712" lon="17.8176316">
        <ele>66.6</ele>
        <time>2012-09-15T16:26:39Z</time>
      </trkpt>
      <trkpt lat="59.4843848" lon="17.8176131">
        <ele>68.2</ele>
        <time>2012-09-15T16:26:41Z</time>
      </trkpt>
      <trkpt lat="59.4844741" lon="17.8175122">
        <ele>68.4</ele>
        <time>2012-09-15T16:27:33Z</time>
      </trkpt>
      <trkpt lat="59.4844793" lon="17.8175019">
        <ele>57.4</ele>
        <time>2012-09-15T16:28:28Z</time>
      </trkpt>
      <trkpt lat="59.4845218" lon="17.8175583">
        <ele>54</ele>
        <time>2012-09-15T16:28:56Z</time>
      </trkpt>
      <trkpt lat="59.4845306" lon="17.8175655">
        <ele>55.2</ele>
        <time>2012-09-15T16:28:57Z</time>
      </trkpt>
      <trkpt lat="59.4846385" lon="17.8176266">
        <ele>54.8</ele>
        <time>2012-09-15T16:30:27Z</time>
      </trkpt>
      <trkpt lat="59.4846564" lon="17.8175153">
        <ele>59.8</ele>
        <time>2012-09-15T16:31:17Z</time>
      </trkpt>
      <trkpt lat="59.4845815" lon="17.8173599">
        <ele>57.2</ele>
        <time>2012-09-15T16:31:58Z</time>
      </trkpt>
      <trkpt lat="59.4845845" lon="17.8173765">
        <ele>58.2</ele>
        <time>2012-09-15T16:31:59Z</time>
      </trkpt>
      <trkpt lat="59.4845814" lon="17.8174249">
        <ele>57.4</ele>
        <time>2012-09-15T16:32:02Z</time>
      </trkpt>
      <trkpt lat="59.484567" lon="17.8174206">
        <ele>56.8</ele>
        <time>2012-09-15T16:32:04Z</time>
      </trkpt>
      <trkpt lat="59.4845347" lon="17.8174249">
        <ele>58</ele>
        <time>2012-09-15T16:32:08Z</time>
      </trkpt>
      <trkpt lat="59.4845126" lon="17.8174578">
        <ele>56.8</ele>
        <time>2012-09-15T16:32:11Z</time>
      </trkpt>
      <trkpt lat="59.4844665" lon="17.8175345">
        <ele>65.6</ele>
        <time>2012-09-15T16:32:26Z</time>
      </trkpt>
      <trkpt lat="59.4844164" lon="17.8175013">
        <ele>68.6</ele>
        <time>2012-09-15T16:32:35Z</time>
      </trkpt>
      <trkpt lat="59.4844121" lon="17.8174769">
        <ele>58.8</ele>
        <time>2012-09-15T16:34:05Z</time>
      </trkpt>
      <trkpt lat="59.4843846" lon="17.8176883">
        <ele>53.4</ele>
        <time>2012-09-15T16:34:39Z</time>
      </trkpt>
      <trkpt lat="59.484372" lon="17.8176805">
        <ele>52.8</ele>
        <time>2012-09-15T16:34:41Z</time>
      </trkpt>
      <trkpt lat="59.4843609" lon="17.8176587">
        <ele>53.4</ele>
        <time>2012-09-15T16:34:43Z</time>
      </trkpt>
      <trkpt lat="59.484355" lon="17.8176426">
        <ele>53.4</ele>
        <time>2012-09-15T16:34:44Z</time>
      </trkpt>
      <trkpt lat="59.4843011" lon="17.8175236">
        <ele>53.6</ele>
        <time>2012-09-15T16:35:02Z</time>
      </trkpt>
      <trkpt lat="59.4843138" lon="17.8174776">
        <ele>53.4</ele>
        <time>2012-09-15T16:35:06Z</time>
      </trkpt>
      <trkpt lat="59.4842951" lon="17.8173792">
        <ele>54.4</ele>
        <time>2012-09-15T16:35:16Z</time>
      </trkpt>
      <trkpt lat="59.4842499" lon="17.8171873">
        <ele>55.8</ele>
        <time>2012-09-15T16:35:49Z</time>
      </trkpt>
      <trkpt lat="59.4841401" lon="17.8172524">
        <ele>55.6</ele>
        <time>2012-09-15T16:36:27Z</time>
      </trkpt>
      <trkpt lat="59.4840765" lon="17.8172517">
        <ele>51.4</ele>
        <time>2012-09-15T16:36:37Z</time>
      </trkpt>
      <trkpt lat="59.4840138" lon="17.8172375">
        <ele>51.6</ele>
        <time>2012-09-15T16:36:44Z</time>
      </trkpt>
      <trkpt lat="59.4839842" lon="17.817236">
        <ele>50.8</ele>
        <time>2012-09-15T16:36:48Z</time>
      </trkpt>
      <trkpt lat="59.4839687" lon="17.8172514">
        <ele>51</ele>
        <time>2012-09-15T16:36:51Z</time>
      </trkpt>
      <trkpt lat="59.4838754" lon="17.8174147">
        <ele>53.6</ele>
        <time>2012-09-15T16:38:38Z</time>
      </trkpt>
      <trkpt lat="59.4837997" lon="17.817331">
        <ele>47.2</ele>
        <time>2012-09-15T16:40:21Z</time>
      </trkpt>
      <trkpt lat="59.4837307" lon="17.817193">
        <ele>46.6</ele>
        <time>2012-09-15T16:40:56Z</time>
      </trkpt>
      <trkpt lat="59.4837341" lon="17.8170843">
        <ele>46</ele>
        <time>2012-09-15T16:41:31Z</time>
      </trkpt>
      <trkpt lat="59.4837342" lon="17.817057">
        <ele>45</ele>
        <time>2012-09-15T16:41:33Z</time>
      </trkpt>
      <trkpt lat="59.4837364" lon="17.8170288">
        <ele>44.2</ele>
        <time>2012-09-15T16:41:35Z</time>
      </trkpt>
      <trkpt lat="59.4837381" lon="17.8169506">
        <ele>40.8</ele>
        <time>2012-09-15T16:41:39Z</time>
      </trkpt>
      <trkpt lat="59.4837461" lon="17.81691">
        <ele>39.4</ele>
        <time>2012-09-15T16:41:41Z</time>
      </trkpt>
      <trkpt lat="59.4837688" lon="17.8168258">
        <ele>41</ele>
        <time>2012-09-15T16:41:48Z</time>
      </trkpt>
      <trkpt lat="59.4838675" lon="17.816646">
        <ele>48.4</ele>
        <time>2012-09-15T16:42:13Z</time>
      </trkpt>
      <trkpt lat="59.4839235" lon="17.8165217">
        <ele>48</ele>
        <time>2012-09-15T16:42:27Z</time>
      </trkpt>
      <trkpt lat="59.4839308" lon="17.8164301">
        <ele>48.8</ele>
        <time>2012-09-15T16:42:32Z</time>
      </trkpt>
      <trkpt lat="59.4839252" lon="17.8163954">
        <ele>49</ele>
        <time>2012-09-15T16:42:34Z</time>
      </trkpt>
      <trkpt lat="59.483922" lon="17.8163411">
        <ele>49</ele>
        <time>2012-09-15T16:42:36Z</time>
      </trkpt>
      <trkpt lat="59.4839272" lon="17.8162958">
        <ele>49</ele>
        <time>2012-09-15T16:42:39Z</time>
      </trkpt>
      <trkpt lat="59.4839396" lon="17.8160717">
        <ele>46.2</ele>
        <time>2012-09-15T16:43:03Z</time>
      </trkpt>
      <trkpt lat="59.4839277" lon="17.815994">
        <ele>46</ele>
        <time>2012-09-15T16:43:13Z</time>
      </trkpt>
      <trkpt lat="59.4839123" lon="17.8159393">
        <ele>44</ele>
        <time>2012-09-15T16:43:18Z</time>
      </trkpt>
      <trkpt lat="59.4838535" lon="17.8157265">
        <ele>37</ele>
        <time>2012-09-15T16:43:40Z</time>
      </trkpt>
      <trkpt lat="59.4838112" lon="17.8157067">
        <ele>35.8</ele>
        <time>2012-09-15T16:43:46Z</time>
      </trkpt>
      <trkpt lat="59.4837879" lon="17.815692">
        <ele>35.4</ele>
        <time>2012-09-15T16:43:49Z</time>
      </trkpt>
      <trkpt lat="59.4837552" lon="17.8156601">
        <ele>34.4</ele>
        <time>2012-09-15T16:43:53Z</time>
      </trkpt>
      <trkpt lat="59.4837763" lon="17.8155467">
        <ele>38.6</ele>
        <time>2012-09-15T16:44:04Z</time>
      </trkpt>
      <trkpt lat="59.4838064" lon="17.8154707">
        <ele>41.2</ele>
        <time>2012-09-15T16:44:10Z</time>
      </trkpt>
      <trkpt lat="59.4837999" lon="17.8154259">
        <ele>41.8</ele>
        <time>2012-09-15T16:44:12Z</time>
      </trkpt>
      <trkpt lat="59.4838235" lon="17.8153474">
        <ele>41.4</ele>
        <time>2012-09-15T16:44:18Z</time>
      </trkpt>
      <trkpt lat="59.4838193" lon="17.8152904">
        <ele>40.2</ele>
        <time>2012-09-15T16:44:21Z</time>
      </trkpt>
      <trkpt lat="59.4838356" lon="17.8152651">
        <ele>41</ele>
        <time>2012-09-15T16:44:24Z</time>
      </trkpt>
      <trkpt lat="59.4838397" lon="17.8152364">
        <ele>41.4</ele>
        <time>2012-09-15T16:44:26Z</time>
      </trkpt>
      <trkpt lat="59.4838531" lon="17.8152029">
        <ele>41.4</ele>
        <time>2012-09-15T16:44:28Z</time>
      </trkpt>
      <trkpt lat="59.4838601" lon="17.8151866">
        <ele>41</ele>
        <time>2012-09-15T16:44:29Z</time>
      </trkpt>
      <trkpt lat="59.4838682" lon="17.8151613">
        <ele>39.6</ele>
        <time>2012-09-15T16:44:32Z</time>
      </trkpt>
      <trkpt lat="59.4839049" lon="17.8151242">
        <ele>38.4</ele>
        <time>2012-09-15T16:44:35Z</time>
      </trkpt>
      <trkpt lat="59.4839505" lon="17.8150548">
        <ele>39.6</ele>
        <time>2012-09-15T16:44:41Z</time>
      </trkpt>
      <trkpt lat="59.4839931" lon="17.8150226">
        <ele>42</ele>
        <time>2012-09-15T16:44:47Z</time>
      </trkpt>
      <trkpt lat="59.4840253" lon="17.8149167">
        <ele>41.6</ele>
        <time>2012-09-15T16:45:11Z</time>
      </trkpt>
      <trkpt lat="59.4840421" lon="17.8149585">
        <ele>43.6</ele>
        <time>2012-09-15T16:45:14Z</time>
      </trkpt>
      <trkpt lat="59.4840724" lon="17.8150119">
        <ele>46.6</ele>
        <time>2012-09-15T16:45:20Z</time>
      </trkpt>
      <trkpt lat="59.4840781" lon="17.8150504">
        <ele>46.2</ele>
        <time>2012-09-15T16:45:22Z</time>
      </trkpt>
      <trkpt lat="59.4841203" lon="17.81496">
        <ele>48.2</ele>
        <time>2012-09-15T16:45:30Z</time>
      </trkpt>
      <trkpt lat="59.4841203" lon="17.8147667">
        <ele>45.6</ele>
        <time>2012-09-15T16:45:54Z</time>
      </trkpt>
      <trkpt lat="59.4841422" lon="17.8146957">
        <ele>45.2</ele>
        <time>2012-09-15T16:45:59Z</time>
      </trkpt>
      <trkpt lat="59.4840998" lon="17.814647">
        <ele>42.2</ele>
        <time>2012-09-15T16:46:09Z</time>
      </trkpt>
      <trkpt lat="59.4840476" lon="17.8146682">
        <ele>43.4</ele>
        <time>2012-09-15T16:46:18Z</time>
      </trkpt>
      <trkpt lat="59.4840216" lon="17.8146793">
        <ele>41</ele>
        <time>2012-09-15T16:46:21Z</time>
      </trkpt>
      <trkpt lat="59.4839961" lon="17.8146627">
        <ele>39.2</ele>
        <time>2012-09-15T16:46:25Z</time>
      </trkpt>
      <trkpt lat="59.4839457" lon="17.8145896">
        <ele>38.8</ele>
        <time>2012-09-15T16:46:32Z</time>
      </trkpt>
      <trkpt lat="59.4839029" lon="17.814541">
        <ele>38.2</ele>
        <time>2012-09-15T16:46:37Z</time>
      </trkpt>
      <trkpt lat="59.483866" lon="17.8144926">
        <ele>39.8</ele>
        <time>2012-09-15T16:46:41Z</time>
      </trkpt>
      <trkpt lat="59.4838372" lon="17.8144636">
        <ele>39</ele>
        <time>2012-09-15T16:46:45Z</time>
      </trkpt>
      <trkpt lat="59.4838129" lon="17.8144927">
        <ele>38.2</ele>
        <time>2012-09-15T16:46:49Z</time>
      </trkpt>
      <trkpt lat="59.483776" lon="17.8144723">
        <ele>38.2</ele>
        <time>2012-09-15T16:46:54Z</time>
      </trkpt>
      <trkpt lat="59.4837667" lon="17.8144771">
        <ele>38.8</ele>
        <time>2012-09-15T16:46:55Z</time>
      </trkpt>
      <trkpt lat="59.4837413" lon="17.814456">
        <ele>39.8</ele>
        <time>2012-09-15T16:46:59Z</time>
      </trkpt>
      <trkpt lat="59.4837092" lon="17.8144528">
        <ele>42.2</ele>
        <time>2012-09-15T16:47:04Z</time>
      </trkpt>
      <trkpt lat="59.4836989" lon="17.8144643">
        <ele>42.6</ele>
        <time>2012-09-15T16:47:05Z</time>
      </trkpt>
      <trkpt lat="59.4836867" lon="17.814504">
        <ele>43.6</ele>
        <time>2012-09-15T16:47:09Z</time>
      </trkpt>
      <trkpt lat="59.4836697" lon="17.814571">
        <ele>44.4</ele>
        <time>2012-09-15T16:47:15Z</time>
      </trkpt>
      <trkpt lat="59.4836725" lon="17.8145989">
        <ele>44.4</ele>
        <time>2012-09-15T16:47:17Z</time>
      </trkpt>
      <trkpt lat="59.4836568" lon="17.8146777">
        <ele>48.2</ele>
        <time>2012-09-15T16:47:22Z</time>
      </trkpt>
      <trkpt lat="59.4836154" lon="17.8147389">
        <ele>50.6</ele>
        <time>2012-09-15T16:47:26Z</time>
      </trkpt>
      <trkpt lat="59.4836087" lon="17.814752">
        <ele>51</ele>
        <time>2012-09-15T16:47:27Z</time>
      </trkpt>
      <trkpt lat="59.4835919" lon="17.8148132">
        <ele>48.4</ele>
        <time>2012-09-15T16:47:33Z</time>
      </trkpt>
      <trkpt lat="59.483542" lon="17.8148299">
        <ele>44.4</ele>
        <time>2012-09-15T16:47:38Z</time>
      </trkpt>
      <trkpt lat="59.4835144" lon="17.8148206">
        <ele>42.6</ele>
        <time>2012-09-15T16:47:41Z</time>
      </trkpt>
      <trkpt lat="59.4834655" lon="17.8148159">
        <ele>39.6</ele>
        <time>2012-09-15T16:47:46Z</time>
      </trkpt>
      <trkpt lat="59.4834555" lon="17.8148119">
        <ele>39</ele>
        <time>2012-09-15T16:47:47Z</time>
      </trkpt>
      <trkpt lat="59.4834336" lon="17.8148297">
        <ele>37.4</ele>
        <time>2012-09-15T16:47:49Z</time>
      </trkpt>
      <trkpt lat="59.4833941" lon="17.8148613">
        <ele>32.8</ele>
        <time>2012-09-15T16:47:54Z</time>
      </trkpt>
      <trkpt lat="59.4833471" lon="17.8148397">
        <ele>31.2</ele>
        <time>2012-09-15T16:47:58Z</time>
      </trkpt>
      <trkpt lat="59.483328" lon="17.8148354">
        <ele>32</ele>
        <time>2012-09-15T16:48:00Z</time>
      </trkpt>
      <trkpt lat="59.4832987" lon="17.8147874">
        <ele>33.8</ele>
        <time>2012-09-15T16:48:05Z</time>
      </trkpt>
      <trkpt lat="59.4832925" lon="17.8147536">
        <ele>34</ele>
        <time>2012-09-15T16:48:07Z</time>
      </trkpt>
      <trkpt lat="59.4832611" lon="17.814736">
        <ele>36.2</ele>
        <time>2012-09-15T16:48:12Z</time>
      </trkpt>
      <trkpt lat="59.4832357" lon="17.8147285">
        <ele>35.4</ele>
        <time>2012-09-15T16:48:15Z</time>
      </trkpt>
      <trkpt lat="59.4831918" lon="17.8146928">
        <ele>35.6</ele>
        <time>2012-09-15T16:48:20Z</time>
      </trkpt>
      <trkpt lat="59.483186" lon="17.8146878">
        <ele>35</ele>
        <time>2012-09-15T16:48:21Z</time>
      </trkpt>
      <trkpt lat="59.4831503" lon="17.8146103">
        <ele>37.6</ele>
        <time>2012-09-15T16:48:27Z</time>
      </trkpt>
      <trkpt lat="59.4831456" lon="17.8146078">
        <ele>37.8</ele>
        <time>2012-09-15T16:48:28Z</time>
      </trkpt>
      <trkpt lat="59.4831381" lon="17.8146289">
        <ele>38.2</ele>
        <time>2012-09-15T16:48:30Z</time>
      </trkpt>
      <trkpt lat="59.4831482" lon="17.8147986">
        <ele>41.2</ele>
        <time>2012-09-15T16:48:50Z</time>
      </trkpt>
      <trkpt lat="59.4831191" lon="17.8147963">
        <ele>38.8</ele>
        <time>2012-09-15T16:48:54Z</time>
      </trkpt>
      <trkpt lat="59.4830923" lon="17.814747">
        <ele>37.6</ele>
        <time>2012-09-15T16:48:59Z</time>
      </trkpt>
      <trkpt lat="59.4829252" lon="17.8146159">
        <ele>31.4</ele>
        <time>2012-09-15T16:49:30Z</time>
      </trkpt>
      <trkpt lat="59.4828476" lon="17.8144493">
        <ele>31.4</ele>
        <time>2012-09-15T16:49:45Z</time>
      </trkpt>
      <trkpt lat="59.4828289" lon="17.8143824">
        <ele>32.8</ele>
        <time>2012-09-15T16:49:50Z</time>
      </trkpt>
      <trkpt lat="59.4828167" lon="17.8143212">
        <ele>33.2</ele>
        <time>2012-09-15T16:49:54Z</time>
      </trkpt>
      <trkpt lat="59.4828131" lon="17.8142875">
        <ele>32.8</ele>
        <time>2012-09-15T16:49:56Z</time>
      </trkpt>
      <trkpt lat="59.482798" lon="17.8142633">
        <ele>33.4</ele>
        <time>2012-09-15T16:49:59Z</time>
      </trkpt>
      <trkpt lat="59.4826631" lon="17.8141383">
        <ele>30</ele>
        <time>2012-09-15T16:50:13Z</time>
      </trkpt>
      <trkpt lat="59.4826142" lon="17.8141073">
        <ele>30.6</ele>
        <time>2012-09-15T16:50:18Z</time>
      </trkpt>
      <trkpt lat="59.4825628" lon="17.8140337">
        <ele>30.6</ele>
        <time>2012-09-15T16:50:24Z</time>
      </trkpt>
      <trkpt lat="59.4825362" lon="17.8139969">
        <ele>32</ele>
        <time>2012-09-15T16:50:27Z</time>
      </trkpt>
      <trkpt lat="59.4825073" lon="17.8140234">
        <ele>33.4</ele>
        <time>2012-09-15T16:50:31Z</time>
      </trkpt>
      <trkpt lat="59.4824934" lon="17.8140467">
        <ele>33.2</ele>
        <time>2012-09-15T16:50:33Z</time>
      </trkpt>
      <trkpt lat="59.4824793" lon="17.8140708">
        <ele>32.2</ele>
        <time>2012-09-15T16:50:35Z</time>
      </trkpt>
      <trkpt lat="59.482441" lon="17.8141632">
        <ele>32.8</ele>
        <time>2012-09-15T16:50:43Z</time>
      </trkpt>
      <trkpt lat="59.4823437" lon="17.8141652">
        <ele>33.8</ele>
        <time>2012-09-15T16:50:51Z</time>
      </trkpt>
      <trkpt lat="59.4823337" lon="17.8141587">
        <ele>34.2</ele>
        <time>2012-09-15T16:50:52Z</time>
      </trkpt>
      <trkpt lat="59.4823053" lon="17.8141491">
        <ele>35.8</ele>
        <time>2012-09-15T16:50:54Z</time>
      </trkpt>
      <trkpt lat="59.4821712" lon="17.8141373">
        <ele>36.8</ele>
        <time>2012-09-15T16:51:05Z</time>
      </trkpt>
      <trkpt lat="59.4821594" lon="17.8141285">
        <ele>37</ele>
        <time>2012-09-15T16:51:06Z</time>
      </trkpt>
      <trkpt lat="59.4821151" lon="17.8141146">
        <ele>37.6</ele>
        <time>2012-09-15T16:51:09Z</time>
      </trkpt>
      <trkpt lat="59.482098" lon="17.8141047">
        <ele>37.8</ele>
        <time>2012-09-15T16:51:11Z</time>
      </trkpt>
      <trkpt lat="59.4820444" lon="17.8141005">
        <ele>36.4</ele>
        <time>2012-09-15T16:51:16Z</time>
      </trkpt>
      <trkpt lat="59.4819773" lon="17.8140291">
        <ele>38.2</ele>
        <time>2012-09-15T16:51:23Z</time>
      </trkpt>
      <trkpt lat="59.4818742" lon="17.8139167">
        <ele>38.8</ele>
        <time>2012-09-15T16:51:33Z</time>
      </trkpt>
      <trkpt lat="59.4818074" lon="17.8138477">
        <ele>39.6</ele>
        <time>2012-09-15T16:51:37Z</time>
      </trkpt>
      <trkpt lat="59.4817326" lon="17.8138183">
        <ele>44.8</ele>
        <time>2012-09-15T16:51:44Z</time>
      </trkpt>
      <trkpt lat="59.4816242" lon="17.8137533">
        <ele>44</ele>
        <time>2012-09-15T16:51:52Z</time>
      </trkpt>
      <trkpt lat="59.4814471" lon="17.8136466">
        <ele>43</ele>
        <time>2012-09-15T16:52:05Z</time>
      </trkpt>
      <trkpt lat="59.4812756" lon="17.8135116">
        <ele>39</ele>
        <time>2012-09-15T16:52:18Z</time>
      </trkpt>
      <trkpt lat="59.4811254" lon="17.8133185">
        <ele>34.8</ele>
        <time>2012-09-15T16:52:30Z</time>
      </trkpt>
      <trkpt lat="59.4809985" lon="17.8130506">
        <ele>35.2</ele>
        <time>2012-09-15T16:52:45Z</time>
      </trkpt>
      <trkpt lat="59.4808823" lon="17.8127738">
        <ele>33.6</ele>
        <time>2012-09-15T16:53:01Z</time>
      </trkpt>
      <trkpt lat="59.4807584" lon="17.8125135">
        <ele>35</ele>
        <time>2012-09-15T16:53:16Z</time>
      </trkpt>
      <trkpt lat="59.4806218" lon="17.8122829">
        <ele>33.6</ele>
        <time>2012-09-15T16:53:28Z</time>
      </trkpt>
      <trkpt lat="59.4804727" lon="17.8120643">
        <ele>29.6</ele>
        <time>2012-09-15T16:53:42Z</time>
      </trkpt>
      <trkpt lat="59.4803266" lon="17.8118187">
        <ele>27.2</ele>
        <time>2012-09-15T16:53:55Z</time>
      </trkpt>
      <trkpt lat="59.4802824" lon="17.8117772">
        <ele>30.4</ele>
        <time>2012-09-15T16:53:58Z</time>
      </trkpt>
      <trkpt lat="59.4801738" lon="17.8116224">
        <ele>31.8</ele>
        <time>2012-09-15T16:54:07Z</time>
      </trkpt>
      <trkpt lat="59.4800035" lon="17.8114566">
        <ele>28.2</ele>
        <time>2012-09-15T16:54:21Z</time>
      </trkpt>
      <trkpt lat="59.4798386" lon="17.8113086">
        <ele>24</ele>
        <time>2012-09-15T16:54:35Z</time>
      </trkpt>
      <trkpt lat="59.4796755" lon="17.8111306">
        <ele>25</ele>
        <time>2012-09-15T16:54:49Z</time>
      </trkpt>
      <trkpt lat="59.4795874" lon="17.8109226">
        <ele>26</ele>
        <time>2012-09-15T16:55:00Z</time>
      </trkpt>
      <trkpt lat="59.4795491" lon="17.8109395">
        <ele>27.2</ele>
        <time>2012-09-15T16:55:06Z</time>
      </trkpt>
      <trkpt lat="59.4795326" lon="17.8109692">
        <ele>29.8</ele>
        <time>2012-09-15T16:55:09Z</time>
      </trkpt>
      <trkpt lat="59.4795041" lon="17.810933">
        <ele>34.2</ele>
        <time>2012-09-15T16:55:20Z</time>
      </trkpt>
    </trkseg>
  </trk>
</gpx>